sensor_id;sensor_type;location;lat;lon;timestamp;temperature;humidity
3648;DHT22;1840;48.892;15.312;2023-12-20T00:01:45;5.70;76.20
3648;DHT22;1840;48.892;15.312;2023-12-20T00:04:14;5.70;75.90
3648;DHT22;1840;48.892;15.312;2023-12-20T00:06:44;5.50;76.60
3648;DHT22;1840;48.892;15.312;2023-12-20T00:09:12;5.50;76.40
3648;DHT22;1840;48.892;15.312;2023-12-20T00:11:40;5.50;77.20
3648;DHT22;1840;48.892;15.312;2023-12-20T00:14:11;5.40;76.90
3648;DHT22;1840;48.892;15.312;2023-12-20T00:16:39;5.40;77.00
3648;DHT22;1840;48.892;15.312;2023-12-20T00:19:07;5.40;76.90
3648;DHT22;1840;48.892;15.312;2023-12-20T00:21:35;5.50;76.90
3648;DHT22;1840;48.892;15.312;2023-12-20T00:24:05;5.50;77.40
3648;DHT22;1840;48.892;15.312;2023-12-20T00:26:33;5.50;77.10
3648;DHT22;1840;48.892;15.312;2023-12-20T00:29:01;5.50;76.60
3648;DHT22;1840;48.892;15.312;2023-12-20T00:31:29;5.20;76.90
3648;DHT22;1840;48.892;15.312;2023-12-20T00:33:57;5.30;76.90
3648;DHT22;1840;48.892;15.312;2023-12-20T00:36:26;5.30;77.20
3648;DHT22;1840;48.892;15.312;2023-12-20T00:38:54;5.20;77.10
3648;DHT22;1840;48.892;15.312;2023-12-20T00:41:23;5.20;77.60
3648;DHT22;1840;48.892;15.312;2023-12-20T00:43:51;5.30;77.50
3648;DHT22;1840;48.892;15.312;2023-12-20T00:46:19;5.40;77.30
3648;DHT22;1840;48.892;15.312;2023-12-20T00:48:47;5.20;77.90
3648;DHT22;1840;48.892;15.312;2023-12-20T00:51:15;5.10;77.90
3648;DHT22;1840;48.892;15.312;2023-12-20T00:53:43;5.10;77.30
3648;DHT22;1840;48.892;15.312;2023-12-20T00:56:11;4.90;77.00
3648;DHT22;1840;48.892;15.312;2023-12-20T00:58:41;4.90;77.40
3648;DHT22;1840;48.892;15.312;2023-12-20T01:01:09;4.90;77.60
3648;DHT22;1840;48.892;15.312;2023-12-20T01:03:38;4.80;77.80
3648;DHT22;1840;48.892;15.312;2023-12-20T01:06:06;4.90;77.70
3648;DHT22;1840;48.892;15.312;2023-12-20T01:08:34;4.80;78.00
3648;DHT22;1840;48.892;15.312;2023-12-20T01:11:04;4.80;77.60
3648;DHT22;1840;48.892;15.312;2023-12-20T01:13:32;4.90;77.50
3648;DHT22;1840;48.892;15.312;2023-12-20T01:16:01;5.00;77.20
3648;DHT22;1840;48.892;15.312;2023-12-20T01:18:29;5.00;77.50
3648;DHT22;1840;48.892;15.312;2023-12-20T01:21:01;4.90;77.70
3648;DHT22;1840;48.892;15.312;2023-12-20T01:23:30;4.90;77.40
3648;DHT22;1840;48.892;15.312;2023-12-20T01:25:58;5.00;77.00
3648;DHT22;1840;48.892;15.312;2023-12-20T01:28:27;4.90;77.20
3648;DHT22;1840;48.892;15.312;2023-12-20T01:30:55;5.00;77.50
3648;DHT22;1840;48.892;15.312;2023-12-20T01:33:25;5.10;77.10
3648;DHT22;1840;48.892;15.312;2023-12-20T01:35:53;5.10;77.40
3648;DHT22;1840;48.892;15.312;2023-12-20T01:38:21;5.10;77.50
3648;DHT22;1840;48.892;15.312;2023-12-20T01:40:49;5.00;77.40
3648;DHT22;1840;48.892;15.312;2023-12-20T01:43:17;5.10;76.80
3648;DHT22;1840;48.892;15.312;2023-12-20T01:45:46;5.20;77.50
3648;DHT22;1840;48.892;15.312;2023-12-20T01:48:15;5.00;77.00
3648;DHT22;1840;48.892;15.312;2023-12-20T01:50:45;4.90;77.20
3648;DHT22;1840;48.892;15.312;2023-12-20T01:53:14;4.80;77.00
3648;DHT22;1840;48.892;15.312;2023-12-20T01:55:43;4.70;77.30
3648;DHT22;1840;48.892;15.312;2023-12-20T01:58:12;4.70;77.50
3648;DHT22;1840;48.892;15.312;2023-12-20T02:00:41;4.70;77.80
3648;DHT22;1840;48.892;15.312;2023-12-20T02:03:09;4.70;77.70
3648;DHT22;1840;48.892;15.312;2023-12-20T02:05:38;4.70;77.80
3648;DHT22;1840;48.892;15.312;2023-12-20T02:08:08;4.70;77.70
3648;DHT22;1840;48.892;15.312;2023-12-20T02:10:36;4.70;77.00
3648;DHT22;1840;48.892;15.312;2023-12-20T02:13:04;4.70;78.00
3648;DHT22;1840;48.892;15.312;2023-12-20T02:15:32;4.70;78.00
3648;DHT22;1840;48.892;15.312;2023-12-20T02:18:00;4.70;78.00
3648;DHT22;1840;48.892;15.312;2023-12-20T02:20:28;4.60;78.00
3648;DHT22;1840;48.892;15.312;2023-12-20T02:22:58;4.60;78.30
3648;DHT22;1840;48.892;15.312;2023-12-20T02:25:25;4.80;77.90
3648;DHT22;1840;48.892;15.312;2023-12-20T02:27:54;4.80;77.70
3648;DHT22;1840;48.892;15.312;2023-12-20T02:30:22;4.80;77.50
3648;DHT22;1840;48.892;15.312;2023-12-20T02:32:51;4.80;78.40
3648;DHT22;1840;48.892;15.312;2023-12-20T02:35:21;4.70;78.00
3648;DHT22;1840;48.892;15.312;2023-12-20T02:37:49;4.80;78.60
3648;DHT22;1840;48.892;15.312;2023-12-20T02:40:18;4.80;78.30
3648;DHT22;1840;48.892;15.312;2023-12-20T02:42:46;4.90;78.00
3648;DHT22;1840;48.892;15.312;2023-12-20T02:45:15;4.80;78.60
3648;DHT22;1840;48.892;15.312;2023-12-20T02:47:43;4.90;79.10
3648;DHT22;1840;48.892;15.312;2023-12-20T02:50:11;4.90;78.70
3648;DHT22;1840;48.892;15.312;2023-12-20T02:52:39;5.00;79.30
3648;DHT22;1840;48.892;15.312;2023-12-20T02:55:07;5.00;79.70
3648;DHT22;1840;48.892;15.312;2023-12-20T02:57:37;4.90;80.00
3648;DHT22;1840;48.892;15.312;2023-12-20T03:00:10;4.80;80.80
3648;DHT22;1840;48.892;15.312;2023-12-20T03:02:38;4.70;81.30
3648;DHT22;1840;48.892;15.312;2023-12-20T03:05:07;4.70;82.00
3648;DHT22;1840;48.892;15.312;2023-12-20T03:07:36;4.60;82.90
3648;DHT22;1840;48.892;15.312;2023-12-20T03:10:06;4.70;83.50
3648;DHT22;1840;48.892;15.312;2023-12-20T03:12:47;4.80;83.90
3648;DHT22;1840;48.892;15.312;2023-12-20T03:15:15;4.80;84.40
3648;DHT22;1840;48.892;15.312;2023-12-20T03:17:43;4.90;84.00
3648;DHT22;1840;48.892;15.312;2023-12-20T03:20:12;4.90;84.70
3648;DHT22;1840;48.892;15.312;2023-12-20T03:22:40;4.90;85.00
3648;DHT22;1840;48.892;15.312;2023-12-20T03:25:08;4.90;85.70
3648;DHT22;1840;48.892;15.312;2023-12-20T03:27:37;4.80;86.70
3648;DHT22;1840;48.892;15.312;2023-12-20T03:30:08;4.80;87.30
3648;DHT22;1840;48.892;15.312;2023-12-20T03:32:38;4.70;88.30
3648;DHT22;1840;48.892;15.312;2023-12-20T03:35:06;4.60;89.90
3648;DHT22;1840;48.892;15.312;2023-12-20T03:37:34;4.50;90.20
3648;DHT22;1840;48.892;15.312;2023-12-20T03:40:04;4.40;90.60
3648;DHT22;1840;48.892;15.312;2023-12-20T03:42:32;4.40;90.70
3648;DHT22;1840;48.892;15.312;2023-12-20T03:45:01;4.50;90.90
3648;DHT22;1840;48.892;15.312;2023-12-20T03:47:30;4.40;91.00
3648;DHT22;1840;48.892;15.312;2023-12-20T03:49:58;4.40;91.50
3648;DHT22;1840;48.892;15.312;2023-12-20T03:52:26;4.30;91.70
3648;DHT22;1840;48.892;15.312;2023-12-20T03:54:54;4.40;91.70
3648;DHT22;1840;48.892;15.312;2023-12-20T03:57:22;4.40;91.90
3648;DHT22;1840;48.892;15.312;2023-12-20T03:59:50;4.40;91.70
3648;DHT22;1840;48.892;15.312;2023-12-20T04:02:18;4.50;91.90
3648;DHT22;1840;48.892;15.312;2023-12-20T04:04:47;4.50;92.00
3648;DHT22;1840;48.892;15.312;2023-12-20T04:07:16;4.40;92.00
3648;DHT22;1840;48.892;15.312;2023-12-20T04:09:44;4.40;92.20
3648;DHT22;1840;48.892;15.312;2023-12-20T04:12:12;4.50;92.30
3648;DHT22;1840;48.892;15.312;2023-12-20T04:14:40;4.50;92.30
3648;DHT22;1840;48.892;15.312;2023-12-20T04:17:08;4.50;92.50
3648;DHT22;1840;48.892;15.312;2023-12-20T04:19:36;4.40;92.50
3648;DHT22;1840;48.892;15.312;2023-12-20T04:22:06;4.30;92.80
3648;DHT22;1840;48.892;15.312;2023-12-20T04:24:34;4.00;93.30
3648;DHT22;1840;48.892;15.312;2023-12-20T04:27:02;4.20;93.50
3648;DHT22;1840;48.892;15.312;2023-12-20T04:29:30;4.00;93.60
3648;DHT22;1840;48.892;15.312;2023-12-20T04:31:58;3.90;93.90
3648;DHT22;1840;48.892;15.312;2023-12-20T04:34:26;3.80;94.20
3648;DHT22;1840;48.892;15.312;2023-12-20T04:36:55;4.00;94.40
3648;DHT22;1840;48.892;15.312;2023-12-20T04:39:25;4.10;94.20
3648;DHT22;1840;48.892;15.312;2023-12-20T04:41:53;3.80;94.50
3648;DHT22;1840;48.892;15.312;2023-12-20T04:44:21;3.80;94.90
3648;DHT22;1840;48.892;15.312;2023-12-20T04:46:49;3.90;95.00
3648;DHT22;1840;48.892;15.312;2023-12-20T04:49:17;3.70;95.30
3648;DHT22;1840;48.892;15.312;2023-12-20T04:51:46;3.70;95.60
3648;DHT22;1840;48.892;15.312;2023-12-20T04:54:14;3.80;95.80
3648;DHT22;1840;48.892;15.312;2023-12-20T04:56:44;3.60;96.10
3648;DHT22;1840;48.892;15.312;2023-12-20T04:59:12;3.50;96.40
3648;DHT22;1840;48.892;15.312;2023-12-20T05:01:40;3.50;96.80
3648;DHT22;1840;48.892;15.312;2023-12-20T05:04:08;3.70;96.90
3648;DHT22;1840;48.892;15.312;2023-12-20T05:06:36;3.60;97.00
3648;DHT22;1840;48.892;15.312;2023-12-20T05:09:05;3.60;97.10
3648;DHT22;1840;48.892;15.312;2023-12-20T05:11:33;3.60;97.20
3648;DHT22;1840;48.892;15.312;2023-12-20T05:14:02;3.60;97.20
3648;DHT22;1840;48.892;15.312;2023-12-20T05:16:31;3.40;97.40
3648;DHT22;1840;48.892;15.312;2023-12-20T05:18:59;3.40;97.60
3648;DHT22;1840;48.892;15.312;2023-12-20T05:21:29;3.40;97.50
3648;DHT22;1840;48.892;15.312;2023-12-20T05:23:58;3.60;97.60
3648;DHT22;1840;48.892;15.312;2023-12-20T05:26:26;3.60;97.50
3648;DHT22;1840;48.892;15.312;2023-12-20T05:28:54;3.60;97.30
3648;DHT22;1840;48.892;15.312;2023-12-20T05:31:23;3.60;97.70
3648;DHT22;1840;48.892;15.312;2023-12-20T05:33:52;3.50;97.30
3648;DHT22;1840;48.892;15.312;2023-12-20T05:36:21;3.60;97.30
3648;DHT22;1840;48.892;15.312;2023-12-20T05:38:49;3.40;97.30
3648;DHT22;1840;48.892;15.312;2023-12-20T05:41:17;3.40;97.60
3648;DHT22;1840;48.892;15.312;2023-12-20T05:43:46;3.30;97.30
3648;DHT22;1840;48.892;15.312;2023-12-20T05:46:14;3.30;97.50
3648;DHT22;1840;48.892;15.312;2023-12-20T05:48:44;3.10;97.60
3648;DHT22;1840;48.892;15.312;2023-12-20T05:51:12;3.10;97.80
3648;DHT22;1840;48.892;15.312;2023-12-20T05:53:41;3.00;98.10
3648;DHT22;1840;48.892;15.312;2023-12-20T05:56:09;3.10;98.40
3648;DHT22;1840;48.892;15.312;2023-12-20T05:58:38;3.00;98.40
3648;DHT22;1840;48.892;15.312;2023-12-20T06:01:07;2.80;98.70
3648;DHT22;1840;48.892;15.312;2023-12-20T06:03:36;2.70;99.00
3648;DHT22;1840;48.892;15.312;2023-12-20T06:06:08;2.90;99.20
3648;DHT22;1840;48.892;15.312;2023-12-20T06:08:43;3.00;99.10
3648;DHT22;1840;48.892;15.312;2023-12-20T06:11:11;3.00;99.10
3648;DHT22;1840;48.892;15.312;2023-12-20T06:13:40;2.90;99.30
3648;DHT22;1840;48.892;15.312;2023-12-20T06:16:08;2.80;99.20
3648;DHT22;1840;48.892;15.312;2023-12-20T06:18:37;2.80;99.50
3648;DHT22;1840;48.892;15.312;2023-12-20T06:21:05;2.70;99.60
3648;DHT22;1840;48.892;15.312;2023-12-20T06:23:36;2.80;99.50
3648;DHT22;1840;48.892;15.312;2023-12-20T06:26:04;2.80;99.30
3648;DHT22;1840;48.892;15.312;2023-12-20T06:28:32;2.90;99.50
3648;DHT22;1840;48.892;15.312;2023-12-20T06:31:00;2.80;99.30
3648;DHT22;1840;48.892;15.312;2023-12-20T06:33:29;2.90;99.30
3648;DHT22;1840;48.892;15.312;2023-12-20T06:35:58;2.90;99.30
3648;DHT22;1840;48.892;15.312;2023-12-20T06:38:27;2.90;99.10
3648;DHT22;1840;48.892;15.312;2023-12-20T06:40:56;2.90;99.30
3648;DHT22;1840;48.892;15.312;2023-12-20T06:43:26;3.00;99.00
3648;DHT22;1840;48.892;15.312;2023-12-20T06:46:12;3.10;98.90
3648;DHT22;1840;48.892;15.312;2023-12-20T06:48:41;3.30;98.50
3648;DHT22;1840;48.892;15.312;2023-12-20T06:51:12;3.30;98.40
3648;DHT22;1840;48.892;15.312;2023-12-20T06:53:40;3.40;98.40
3648;DHT22;1840;48.892;15.312;2023-12-20T06:56:11;3.20;98.20
3648;DHT22;1840;48.892;15.312;2023-12-20T06:58:44;3.20;98.30
3648;DHT22;1840;48.892;15.312;2023-12-20T07:01:12;3.00;98.30
3648;DHT22;1840;48.892;15.312;2023-12-20T07:03:41;3.10;98.10
3648;DHT22;1840;48.892;15.312;2023-12-20T07:06:09;3.10;98.40
3648;DHT22;1840;48.892;15.312;2023-12-20T07:08:37;3.20;98.20
3648;DHT22;1840;48.892;15.312;2023-12-20T07:11:05;3.10;98.30
3648;DHT22;1840;48.892;15.312;2023-12-20T07:13:35;3.00;98.30
3648;DHT22;1840;48.892;15.312;2023-12-20T07:16:03;2.90;98.90
3648;DHT22;1840;48.892;15.312;2023-12-20T07:18:31;2.90;98.80
3648;DHT22;1840;48.892;15.312;2023-12-20T07:21:00;2.90;98.80
3648;DHT22;1840;48.892;15.312;2023-12-20T07:23:28;3.00;98.90
3648;DHT22;1840;48.892;15.312;2023-12-20T07:25:56;3.10;98.80
3648;DHT22;1840;48.892;15.312;2023-12-20T07:28:25;3.10;98.90
3648;DHT22;1840;48.892;15.312;2023-12-20T07:30:55;3.00;99.20
3648;DHT22;1840;48.892;15.312;2023-12-20T07:33:23;2.90;99.40
3648;DHT22;1840;48.892;15.312;2023-12-20T07:35:52;2.70;99.70
3648;DHT22;1840;48.892;15.312;2023-12-20T07:38:21;2.60;99.90
3648;DHT22;1840;48.892;15.312;2023-12-20T07:40:49;2.50;99.90
3648;DHT22;1840;48.892;15.312;2023-12-20T07:43:17;2.60;99.90
3648;DHT22;1840;48.892;15.312;2023-12-20T07:45:46;2.60;99.90
3648;DHT22;1840;48.892;15.312;2023-12-20T07:48:16;2.60;99.90
3648;DHT22;1840;48.892;15.312;2023-12-20T07:50:44;2.60;99.90
3648;DHT22;1840;48.892;15.312;2023-12-20T07:53:13;2.60;99.90
3648;DHT22;1840;48.892;15.312;2023-12-20T07:55:41;2.50;99.90
3648;DHT22;1840;48.892;15.312;2023-12-20T07:58:10;2.50;99.90
3648;DHT22;1840;48.892;15.312;2023-12-20T08:00:38;2.50;99.90
3648;DHT22;1840;48.892;15.312;2023-12-20T08:03:06;2.50;99.90
3648;DHT22;1840;48.892;15.312;2023-12-20T08:05:35;2.30;99.90
3648;DHT22;1840;48.892;15.312;2023-12-20T08:08:04;2.10;99.90
3648;DHT22;1840;48.892;15.312;2023-12-20T08:10:33;2.10;99.90
3648;DHT22;1840;48.892;15.312;2023-12-20T08:13:01;2.10;99.90
3648;DHT22;1840;48.892;15.312;2023-12-20T08:15:29;2.00;99.90
3648;DHT22;1840;48.892;15.312;2023-12-20T08:17:57;1.80;99.90
3648;DHT22;1840;48.892;15.312;2023-12-20T08:20:28;1.70;99.90
3648;DHT22;1840;48.892;15.312;2023-12-20T08:23:07;1.60;99.90
3648;DHT22;1840;48.892;15.312;2023-12-20T08:25:35;1.50;99.90
3648;DHT22;1840;48.892;15.312;2023-12-20T08:28:04;1.50;99.90
3648;DHT22;1840;48.892;15.312;2023-12-20T08:30:32;1.40;99.90
3648;DHT22;1840;48.892;15.312;2023-12-20T08:33:00;1.50;99.90
3648;DHT22;1840;48.892;15.312;2023-12-20T08:35:32;1.60;99.90
3648;DHT22;1840;48.892;15.312;2023-12-20T08:38:00;1.50;99.90
3648;DHT22;1840;48.892;15.312;2023-12-20T08:40:30;1.50;99.90
3648;DHT22;1840;48.892;15.312;2023-12-20T08:42:59;1.40;99.90
3648;DHT22;1840;48.892;15.312;2023-12-20T08:45:27;1.40;99.90
3648;DHT22;1840;48.892;15.312;2023-12-20T08:47:56;1.50;99.90
3648;DHT22;1840;48.892;15.312;2023-12-20T08:50:28;1.70;99.90
3648;DHT22;1840;48.892;15.312;2023-12-20T08:52:57;1.50;99.90
3648;DHT22;1840;48.892;15.312;2023-12-20T08:55:25;1.50;99.90
3648;DHT22;1840;48.892;15.312;2023-12-20T08:57:57;1.50;99.90
3648;DHT22;1840;48.892;15.312;2023-12-20T09:00:26;1.60;99.90
3648;DHT22;1840;48.892;15.312;2023-12-20T09:02:54;1.60;99.90
3648;DHT22;1840;48.892;15.312;2023-12-20T09:05:23;1.60;99.90
3648;DHT22;1840;48.892;15.312;2023-12-20T09:07:51;1.60;99.90
3648;DHT22;1840;48.892;15.312;2023-12-20T09:10:23;1.60;99.90
3648;DHT22;1840;48.892;15.312;2023-12-20T09:12:54;1.60;99.90
3648;DHT22;1840;48.892;15.312;2023-12-20T09:15:25;1.70;99.90
3648;DHT22;1840;48.892;15.312;2023-12-20T09:17:54;1.80;99.90
3648;DHT22;1840;48.892;15.312;2023-12-20T09:20:23;1.70;99.90
3648;DHT22;1840;48.892;15.312;2023-12-20T09:22:51;1.70;99.90
3648;DHT22;1840;48.892;15.312;2023-12-20T09:25:20;1.80;99.90
3648;DHT22;1840;48.892;15.312;2023-12-20T09:27:49;1.90;99.90
3648;DHT22;1840;48.892;15.312;2023-12-20T09:30:17;1.80;99.90
3648;DHT22;1840;48.892;15.312;2023-12-20T09:32:55;1.80;99.90
3648;DHT22;1840;48.892;15.312;2023-12-20T09:35:23;1.80;99.90
3648;DHT22;1840;48.892;15.312;2023-12-20T09:37:51;1.90;99.90
3648;DHT22;1840;48.892;15.312;2023-12-20T09:40:20;1.70;99.90
3648;DHT22;1840;48.892;15.312;2023-12-20T09:42:54;1.90;99.90
3648;DHT22;1840;48.892;15.312;2023-12-20T09:45:24;2.00;99.90
3648;DHT22;1840;48.892;15.312;2023-12-20T09:47:54;2.20;99.90
3648;DHT22;1840;48.892;15.312;2023-12-20T09:50:26;2.20;99.90
3648;DHT22;1840;48.892;15.312;2023-12-20T09:52:58;2.20;99.90
3648;DHT22;1840;48.892;15.312;2023-12-20T09:55:28;2.10;99.90
3648;DHT22;1840;48.892;15.312;2023-12-20T09:57:57;2.10;99.90
3648;DHT22;1840;48.892;15.312;2023-12-20T10:00:26;2.20;99.90
3648;DHT22;1840;48.892;15.312;2023-12-20T10:02:57;2.20;99.90
3648;DHT22;1840;48.892;15.312;2023-12-20T10:05:27;2.20;99.90
3648;DHT22;1840;48.892;15.312;2023-12-20T10:07:56;2.20;99.90
3648;DHT22;1840;48.892;15.312;2023-12-20T10:10:25;2.20;99.90
3648;DHT22;1840;48.892;15.312;2023-12-20T10:13:09;2.20;99.90
3648;DHT22;1840;48.892;15.312;2023-12-20T10:15:38;2.30;99.90
3648;DHT22;1840;48.892;15.312;2023-12-20T10:18:11;2.20;99.90
3648;DHT22;1840;48.892;15.312;2023-12-20T10:20:41;2.30;99.90
3648;DHT22;1840;48.892;15.312;2023-12-20T10:23:10;2.40;99.90
3648;DHT22;1840;48.892;15.312;2023-12-20T10:25:39;2.50;99.90
3648;DHT22;1840;48.892;15.312;2023-12-20T10:28:10;2.60;99.90
3648;DHT22;1840;48.892;15.312;2023-12-20T10:30:39;2.70;99.90
3648;DHT22;1840;48.892;15.312;2023-12-20T10:33:10;2.70;99.90
3648;DHT22;1840;48.892;15.312;2023-12-20T10:35:39;2.80;99.90
3648;DHT22;1840;48.892;15.312;2023-12-20T10:38:12;2.80;99.90
3648;DHT22;1840;48.892;15.312;2023-12-20T10:40:42;2.80;99.90
3648;DHT22;1840;48.892;15.312;2023-12-20T10:43:10;3.10;99.90
3648;DHT22;1840;48.892;15.312;2023-12-20T10:45:39;3.20;99.90
3648;DHT22;1840;48.892;15.312;2023-12-20T10:48:11;3.30;99.90
3648;DHT22;1840;48.892;15.312;2023-12-20T10:50:41;3.30;99.90
3648;DHT22;1840;48.892;15.312;2023-12-20T10:53:09;3.30;99.90
3648;DHT22;1840;48.892;15.312;2023-12-20T10:55:39;3.40;99.90
3648;DHT22;1840;48.892;15.312;2023-12-20T10:58:09;3.30;99.90
3648;DHT22;1840;48.892;15.312;2023-12-20T11:00:41;3.40;99.90
3648;DHT22;1840;48.892;15.312;2023-12-20T11:03:16;3.40;99.90
3648;DHT22;1840;48.892;15.312;2023-12-20T11:05:50;3.40;99.90
3648;DHT22;1840;48.892;15.312;2023-12-20T11:08:28;3.40;99.90
3648;DHT22;1840;48.892;15.312;2023-12-20T11:11:06;3.40;99.90
3648;DHT22;1840;48.892;15.312;2023-12-20T11:13:40;3.40;99.90
3648;DHT22;1840;48.892;15.312;2023-12-20T11:16:09;3.50;99.90
3648;DHT22;1840;48.892;15.312;2023-12-20T11:18:44;3.40;99.90
3648;DHT22;1840;48.892;15.312;2023-12-20T11:21:12;3.40;99.40
3648;DHT22;1840;48.892;15.312;2023-12-20T11:23:42;3.30;99.50
3648;DHT22;1840;48.892;15.312;2023-12-20T11:26:10;3.50;99.50
3648;DHT22;1840;48.892;15.312;2023-12-20T11:28:39;3.30;99.60
3648;DHT22;1840;48.892;15.312;2023-12-20T11:31:07;3.30;99.50
3648;DHT22;1840;48.892;15.312;2023-12-20T11:33:40;3.20;99.70
3648;DHT22;1840;48.892;15.312;2023-12-20T11:36:14;3.30;99.70
3648;DHT22;1840;48.892;15.312;2023-12-20T11:38:57;3.40;99.70
3648;DHT22;1840;48.892;15.312;2023-12-20T11:41:28;3.50;99.50
3648;DHT22;1840;48.892;15.312;2023-12-20T11:43:57;3.50;99.60
3648;DHT22;1840;48.892;15.312;2023-12-20T11:46:27;3.50;99.50
3648;DHT22;1840;48.892;15.312;2023-12-20T11:48:57;3.50;99.50
3648;DHT22;1840;48.892;15.312;2023-12-20T11:51:25;3.70;99.30
3648;DHT22;1840;48.892;15.312;2023-12-20T11:53:55;3.70;99.10
3648;DHT22;1840;48.892;15.312;2023-12-20T11:56:23;4.00;99.30
3648;DHT22;1840;48.892;15.312;2023-12-20T11:58:51;3.90;98.90
3648;DHT22;1840;48.892;15.312;2023-12-20T12:01:24;3.70;99.20
3648;DHT22;1840;48.892;15.312;2023-12-20T12:04:03;3.60;99.00
3648;DHT22;1840;48.892;15.312;2023-12-20T12:06:32;3.50;98.90
3648;DHT22;1840;48.892;15.312;2023-12-20T12:09:01;3.60;99.20
3648;DHT22;1840;48.892;15.312;2023-12-20T12:11:32;3.70;99.10
3648;DHT22;1840;48.892;15.312;2023-12-20T12:14:00;3.80;99.00
3648;DHT22;1840;48.892;15.312;2023-12-20T12:16:29;3.90;98.70
3648;DHT22;1840;48.892;15.312;2023-12-20T12:19:02;3.90;98.60
3648;DHT22;1840;48.892;15.312;2023-12-20T12:21:33;3.90;98.40
3648;DHT22;1840;48.892;15.312;2023-12-20T12:24:08;3.80;98.40
3648;DHT22;1840;48.892;15.312;2023-12-20T12:26:37;3.90;98.40
3648;DHT22;1840;48.892;15.312;2023-12-20T12:29:07;3.90;98.20
3648;DHT22;1840;48.892;15.312;2023-12-20T12:31:36;3.90;98.10
3648;DHT22;1840;48.892;15.312;2023-12-20T12:34:06;3.80;98.20
3648;DHT22;1840;48.892;15.312;2023-12-20T12:36:37;3.80;98.40
3648;DHT22;1840;48.892;15.312;2023-12-20T12:39:05;3.70;98.30
3648;DHT22;1840;48.892;15.312;2023-12-20T12:41:33;3.70;98.70
3648;DHT22;1840;48.892;15.312;2023-12-20T12:44:03;3.90;98.50
3648;DHT22;1840;48.892;15.312;2023-12-20T12:46:47;3.90;98.30
3648;DHT22;1840;48.892;15.312;2023-12-20T12:49:19;4.00;98.50
3648;DHT22;1840;48.892;15.312;2023-12-20T12:51:49;4.00;98.30
3648;DHT22;1840;48.892;15.312;2023-12-20T12:54:19;4.00;98.40
3648;DHT22;1840;48.892;15.312;2023-12-20T12:56:50;3.90;98.20
3648;DHT22;1840;48.892;15.312;2023-12-20T12:59:19;3.70;98.20
3648;DHT22;1840;48.892;15.312;2023-12-20T13:01:48;3.70;98.40
3648;DHT22;1840;48.892;15.312;2023-12-20T13:04:16;3.60;98.10
3648;DHT22;1840;48.892;15.312;2023-12-20T13:06:45;3.70;98.20
3648;DHT22;1840;48.892;15.312;2023-12-20T13:09:14;3.70;98.30
3648;DHT22;1840;48.892;15.312;2023-12-20T13:11:42;3.70;98.20
3648;DHT22;1840;48.892;15.312;2023-12-20T13:14:10;3.70;98.60
3648;DHT22;1840;48.892;15.312;2023-12-20T13:16:42;3.80;98.70
3648;DHT22;1840;48.892;15.312;2023-12-20T13:19:11;3.80;98.60
3648;DHT22;1840;48.892;15.312;2023-12-20T13:21:41;3.70;98.50
3648;DHT22;1840;48.892;15.312;2023-12-20T13:24:10;3.50;99.00
3648;DHT22;1840;48.892;15.312;2023-12-20T13:26:38;3.40;99.10
3648;DHT22;1840;48.892;15.312;2023-12-20T13:29:06;3.40;99.70
3648;DHT22;1840;48.892;15.312;2023-12-20T13:31:34;3.60;99.40
3648;DHT22;1840;48.892;15.312;2023-12-20T13:34:05;3.60;98.90
3648;DHT22;1840;48.892;15.312;2023-12-20T13:36:33;3.50;99.00
3648;DHT22;1840;48.892;15.312;2023-12-20T13:39:03;3.50;99.00
3648;DHT22;1840;48.892;15.312;2023-12-20T13:41:33;3.40;98.90
3648;DHT22;1840;48.892;15.312;2023-12-20T13:44:02;3.30;99.50
3648;DHT22;1840;48.892;15.312;2023-12-20T13:46:31;3.20;99.30
3648;DHT22;1840;48.892;15.312;2023-12-20T13:48:59;3.20;99.40
3648;DHT22;1840;48.892;15.312;2023-12-20T13:51:29;3.20;99.60
3648;DHT22;1840;48.892;15.312;2023-12-20T13:53:57;3.10;99.60
3648;DHT22;1840;48.892;15.312;2023-12-20T13:56:28;3.10;99.50
3648;DHT22;1840;48.892;15.312;2023-12-20T13:59:02;3.10;99.50
3648;DHT22;1840;48.892;15.312;2023-12-20T14:01:30;3.10;99.40
3648;DHT22;1840;48.892;15.312;2023-12-20T14:04:02;3.10;99.50
3648;DHT22;1840;48.892;15.312;2023-12-20T14:06:33;3.00;99.60
3648;DHT22;1840;48.892;15.312;2023-12-20T14:09:02;2.90;99.50
3648;DHT22;1840;48.892;15.312;2023-12-20T14:11:30;2.80;99.60
3648;DHT22;1840;48.892;15.312;2023-12-20T14:13:59;2.70;99.30
3648;DHT22;1840;48.892;15.312;2023-12-20T14:16:32;2.70;99.30
3648;DHT22;1840;48.892;15.312;2023-12-20T14:19:00;2.50;99.10
3648;DHT22;1840;48.892;15.312;2023-12-20T14:21:30;2.70;98.90
3648;DHT22;1840;48.892;15.312;2023-12-20T14:23:58;2.70;98.90
3648;DHT22;1840;48.892;15.312;2023-12-20T14:26:27;2.80;98.80
3648;DHT22;1840;48.892;15.312;2023-12-20T14:28:56;2.90;98.60
3648;DHT22;1840;48.892;15.312;2023-12-20T14:31:24;3.00;98.70
3648;DHT22;1840;48.892;15.312;2023-12-20T14:33:54;2.90;98.50
3648;DHT22;1840;48.892;15.312;2023-12-20T14:36:22;2.90;98.40
3648;DHT22;1840;48.892;15.312;2023-12-20T14:38:50;2.90;98.40
3648;DHT22;1840;48.892;15.312;2023-12-20T14:41:19;2.70;97.80
3648;DHT22;1840;48.892;15.312;2023-12-20T14:43:47;2.70;98.10
3648;DHT22;1840;48.892;15.312;2023-12-20T14:46:18;2.70;97.70
3648;DHT22;1840;48.892;15.312;2023-12-20T14:48:47;2.80;97.60
3648;DHT22;1840;48.892;15.312;2023-12-20T14:51:18;2.90;97.60
3648;DHT22;1840;48.892;15.312;2023-12-20T14:53:47;2.80;97.20
3648;DHT22;1840;48.892;15.312;2023-12-20T14:56:15;2.80;96.90
3648;DHT22;1840;48.892;15.312;2023-12-20T14:58:43;2.80;96.80
3648;DHT22;1840;48.892;15.312;2023-12-20T15:01:11;2.80;96.80
3648;DHT22;1840;48.892;15.312;2023-12-20T15:03:40;2.70;96.80
3648;DHT22;1840;48.892;15.312;2023-12-20T15:06:09;2.60;96.70
3648;DHT22;1840;48.892;15.312;2023-12-20T15:08:40;2.80;96.40
3648;DHT22;1840;48.892;15.312;2023-12-20T15:11:09;2.80;95.90
3648;DHT22;1840;48.892;15.312;2023-12-20T15:13:38;2.70;95.70
3648;DHT22;1840;48.892;15.312;2023-12-20T15:16:06;2.50;95.70
3648;DHT22;1840;48.892;15.312;2023-12-20T15:18:34;2.50;95.60
3648;DHT22;1840;48.892;15.312;2023-12-20T15:21:04;2.60;95.60
3648;DHT22;1840;48.892;15.312;2023-12-20T15:23:32;2.40;95.40
3648;DHT22;1840;48.892;15.312;2023-12-20T15:26:02;2.50;95.50
3648;DHT22;1840;48.892;15.312;2023-12-20T15:28:33;2.50;95.20
3648;DHT22;1840;48.892;15.312;2023-12-20T15:31:04;2.50;95.20
3648;DHT22;1840;48.892;15.312;2023-12-20T15:33:33;2.50;95.20
3648;DHT22;1840;48.892;15.312;2023-12-20T15:36:01;2.50;95.30
3648;DHT22;1840;48.892;15.312;2023-12-20T15:38:29;2.60;94.90
3648;DHT22;1840;48.892;15.312;2023-12-20T15:40:58;2.70;94.80
3648;DHT22;1840;48.892;15.312;2023-12-20T15:43:27;2.60;94.80
3648;DHT22;1840;48.892;15.312;2023-12-20T15:45:56;2.50;94.80
3648;DHT22;1840;48.892;15.312;2023-12-20T15:48:25;2.70;94.90
3648;DHT22;1840;48.892;15.312;2023-12-20T15:50:56;2.70;94.90
3648;DHT22;1840;48.892;15.312;2023-12-20T15:53:24;2.60;94.70
3648;DHT22;1840;48.892;15.312;2023-12-20T15:55:53;2.60;94.70
3648;DHT22;1840;48.892;15.312;2023-12-20T15:58:21;2.40;94.50
3648;DHT22;1840;48.892;15.312;2023-12-20T16:00:51;2.40;94.60
3648;DHT22;1840;48.892;15.312;2023-12-20T16:03:19;2.40;94.20
3648;DHT22;1840;48.892;15.312;2023-12-20T16:05:52;2.30;94.40
3648;DHT22;1840;48.892;15.312;2023-12-20T16:08:20;2.30;94.30
3648;DHT22;1840;48.892;15.312;2023-12-20T16:10:48;2.40;94.10
3648;DHT22;1840;48.892;15.312;2023-12-20T16:13:17;2.30;94.00
3648;DHT22;1840;48.892;15.312;2023-12-20T16:15:47;2.30;94.20